createdAt,value
2023-03-10T00:04:29.356Z,94.29
2023-03-10T00:09:51.249Z,95.67
2023-03-10T00:15:13.267Z,95.66
2023-03-10T00:20:35.138Z,95.94
2023-03-10T00:25:59.377Z,97.11
2023-03-10T00:31:24.252Z,98.28
2023-03-10T00:36:46.143Z,99.35
2023-03-10T00:42:08.053Z,98.85
2023-03-10T00:47:29.884Z,97.73
2023-03-10T00:52:51.736Z,99.23
2023-03-10T00:58:13.591Z,99.54
2023-03-10T01:03:35.423Z,99.85
2023-03-10T01:08:57.319Z,100.00
2023-03-10T01:14:19.474Z,100.00
2023-03-10T01:19:41.690Z,100.00
2023-03-10T01:25:03.841Z,100.00
2023-03-10T01:30:26.136Z,100.00
2023-03-10T01:35:48.099Z,100.00
2023-03-10T01:41:12.036Z,100.00
2023-03-10T01:46:53.147Z,100.00
2023-03-10T01:52:20.209Z,100.00
2023-03-10T01:57:54.240Z,100.00
2023-03-10T02:03:30.125Z,100.00
2023-03-10T02:08:56.668Z,100.00
2023-03-10T02:14:19.060Z,100.00
2023-03-10T02:19:54.565Z,100.00
2023-03-10T02:25:34.581Z,100.00
2023-03-10T02:30:57.616Z,100.00
2023-03-10T02:36:22.398Z,100.00
2023-03-10T02:41:45.699Z,100.00
2023-03-10T02:47:08.034Z,100.00
2023-03-10T02:52:39.561Z,100.00
2023-03-10T02:58:01.404Z,100.00
2023-03-10T03:03:23.646Z,100.00
2023-03-10T03:08:45.595Z,100.00
2023-03-10T03:14:07.490Z,100.00
2023-03-10T03:19:29.973Z,100.00
2023-03-10T03:24:51.908Z,100.00
2023-03-10T03:30:17.155Z,100.00
2023-03-10T03:35:39.115Z,100.00
2023-03-10T03:41:01.028Z,100.00
2023-03-10T03:46:22.946Z,100.00
2023-03-10T03:51:44.841Z,100.00
2023-03-10T03:57:06.682Z,100.00
2023-03-10T04:02:28.746Z,100.00
2023-03-10T04:07:50.705Z,100.00
2023-03-10T04:13:12.550Z,100.00
2023-03-10T04:18:34.426Z,100.00
2023-03-10T04:23:56.295Z,100.00
2023-03-10T04:29:18.302Z,100.00
2023-03-10T04:34:40.217Z,100.00
2023-03-10T04:40:03.539Z,100.00
2023-03-10T04:45:25.402Z,100.00
2023-03-10T04:50:58.949Z,100.00
2023-03-10T04:56:21.054Z,100.00
2023-03-10T05:01:42.958Z,100.00
2023-03-10T05:07:05.006Z,100.00
2023-03-10T05:12:26.955Z,100.00
2023-03-10T05:17:50.098Z,100.00
2023-03-10T05:23:12.027Z,100.00
2023-03-10T05:28:34.309Z,100.00
2023-03-10T05:33:56.556Z,100.00
2023-03-10T05:39:18.429Z,100.00
2023-03-10T05:44:40.329Z,100.00
2023-03-10T05:50:02.400Z,100.00
2023-03-10T05:55:24.232Z,100.00
2023-03-10T06:00:46.114Z,100.00
2023-03-10T06:06:08.140Z,100.00
2023-03-10T06:11:30.132Z,100.00
2023-03-10T06:16:54.672Z,100.00
2023-03-10T06:22:16.589Z,100.00
2023-03-10T06:27:38.452Z,100.00
2023-03-10T06:33:01.143Z,100.00
2023-03-10T06:38:23.602Z,100.00
2023-03-10T06:43:46.046Z,100.00
2023-03-10T06:49:07.911Z,100.00
2023-03-10T06:54:29.807Z,100.00
2023-03-10T06:59:51.634Z,100.00
2023-03-10T07:05:13.941Z,100.00
2023-03-10T07:10:35.818Z,100.00
2023-03-10T07:15:57.686Z,100.00
2023-03-10T07:21:20.951Z,100.00
2023-03-10T07:26:42.900Z,100.00
2023-03-10T07:32:05.099Z,100.00
2023-03-10T07:37:27.311Z,100.00
2023-03-10T07:42:49.122Z,100.00
2023-03-10T07:48:10.944Z,100.00
2023-03-10T07:53:32.972Z,100.00
2023-03-10T07:58:54.787Z,100.00
2023-03-10T08:04:16.826Z,100.00
2023-03-10T08:09:39.046Z,100.00
2023-03-10T08:15:00.934Z,100.00
2023-03-10T08:20:22.804Z,100.00
2023-03-10T08:25:44.650Z,100.00
2023-03-10T08:31:12.135Z,100.00
2023-03-10T08:36:34.020Z,100.00
2023-03-10T08:41:56.133Z,100.00
2023-03-10T08:47:17.986Z,100.00
2023-03-10T08:52:40.348Z,100.00
2023-03-10T08:58:02.198Z,100.00
2023-03-10T09:03:24.308Z,100.00
2023-03-10T09:08:46.304Z,100.00
2023-03-10T09:14:10.453Z,100.00
2023-03-10T09:19:32.334Z,100.00
2023-03-10T09:24:54.174Z,100.00
2023-03-10T09:30:16.210Z,100.00
2023-03-10T09:35:41.743Z,100.00
2023-03-10T09:41:40.874Z,100.00
2023-03-10T09:47:44.085Z,100.00
2023-03-10T09:53:12.896Z,100.00
2023-03-10T09:58:39.295Z,100.00
2023-03-10T10:04:19.916Z,100.00
2023-03-10T10:09:58.730Z,100.00
2023-03-10T10:15:26.805Z,100.00
2023-03-10T10:20:53.203Z,100.00
2023-03-10T10:26:20.753Z,100.00
2023-03-10T10:31:43.010Z,100.00
2023-03-10T10:37:37.721Z,100.00
2023-03-10T10:43:02.487Z,100.00
2023-03-10T10:48:36.599Z,100.00
2023-03-10T10:54:03.849Z,100.00
2023-03-10T10:59:35.655Z,100.00
2023-03-10T11:05:18.073Z,100.00
2023-03-10T11:10:40.712Z,100.00
2023-03-10T11:16:21.164Z,100.00
2023-03-10T11:21:49.219Z,100.00
2023-03-10T11:27:40.041Z,100.00
2023-03-10T11:33:39.171Z,100.00
2023-03-10T11:39:38.594Z,98.63
2023-03-10T11:45:39.963Z,96.78
2023-03-10T11:51:05.905Z,97.79
2023-03-10T11:56:28.483Z,96.43
2023-03-10T12:02:03.053Z,95.39
2023-03-10T12:07:42.592Z,94.20
2023-03-10T12:13:05.568Z,91.94
2023-03-10T12:18:27.896Z,91.17
2023-03-10T12:23:52.324Z,90.49
2023-03-10T12:29:20.269Z,89.88
2023-03-10T12:34:42.265Z,88.96
2023-03-10T12:40:24.275Z,88.56
2023-03-10T12:45:46.605Z,87.42
2023-03-10T12:51:16.489Z,84.89
2023-03-10T12:56:43.228Z,83.97
2023-03-10T13:02:28.076Z,81.72
2023-03-10T13:07:54.319Z,80.96
2023-03-10T13:13:17.445Z,79.83
2023-03-10T13:18:47.440Z,77.66
2023-03-10T13:24:23.570Z,76.38
2023-03-10T13:30:19.134Z,75.70
2023-03-10T13:35:42.157Z,77.22
2023-03-10T13:41:04.334Z,76.02
2023-03-10T13:46:32.642Z,75.15
2023-03-10T13:51:54.408Z,75.14
2023-03-10T13:57:31.405Z,75.01
2023-03-10T14:02:54.901Z,75.03
2023-03-10T14:08:21.376Z,73.36
2023-03-10T14:13:45.030Z,73.75
2023-03-10T14:19:09.605Z,71.97
2023-03-10T14:24:31.475Z,71.16
2023-03-10T14:30:00.203Z,70.07
2023-03-10T14:35:23.188Z,70.08
2023-03-10T14:40:51.283Z,68.99
2023-03-10T14:46:13.295Z,68.69
2023-03-10T14:51:36.553Z,67.93
2023-03-10T14:56:58.503Z,67.39
2023-03-10T15:02:22.936Z,66.70
2023-03-10T15:07:45.163Z,66.50
2023-03-10T15:13:07.975Z,66.50
2023-03-10T15:18:29.839Z,66.84
2023-03-10T15:23:51.680Z,66.98
2023-03-10T15:29:15.214Z,67.42
2023-03-10T15:34:37.110Z,68.00
2023-03-10T15:39:59.544Z,68.15
2023-03-10T15:45:21.734Z,68.38
2023-03-10T15:50:45.628Z,68.65
2023-03-10T15:56:08.676Z,68.91
2023-03-10T16:01:30.636Z,69.48
2023-03-10T16:06:52.488Z,69.82
2023-03-10T16:12:14.312Z,69.77
2023-03-10T16:17:36.606Z,70.23
2023-03-10T16:22:58.503Z,70.06
2023-03-10T16:28:20.396Z,69.93
2023-03-10T16:33:42.690Z,70.02
2023-03-10T16:39:09.139Z,69.94
2023-03-10T16:44:31.028Z,71.27
2023-03-10T16:49:53.240Z,71.42
2023-03-10T16:55:15.144Z,71.56
2023-03-10T17:00:37.162Z,72.59
2023-03-10T17:05:59.083Z,72.59
2023-03-10T17:11:27.489Z,73.00
2023-03-10T17:16:49.613Z,74.11
2023-03-10T17:22:11.518Z,73.86
2023-03-10T17:27:33.391Z,74.33
2023-03-10T17:32:55.304Z,74.67
2023-03-10T17:38:17.122Z,75.47
2023-03-10T17:43:39.795Z,75.96
2023-03-10T17:49:01.809Z,76.19
2023-03-10T17:54:23.755Z,76.80
2023-03-10T17:59:45.685Z,77.55
2023-03-10T18:05:07.820Z,77.85
2023-03-10T18:10:29.703Z,77.51
2023-03-10T18:15:51.611Z,78.00
2023-03-10T18:21:14.615Z,78.10
2023-03-10T18:26:37.219Z,77.95
2023-03-10T18:31:59.060Z,77.80
2023-03-10T18:37:21.055Z,79.48
2023-03-10T18:42:42.893Z,80.16
2023-03-10T18:48:06.228Z,80.72
2023-03-10T18:53:28.835Z,81.62
2023-03-10T18:58:50.639Z,81.58
2023-03-10T19:04:12.516Z,82.61
2023-03-10T19:09:34.405Z,82.81
2023-03-10T19:14:57.097Z,83.08
2023-03-10T19:20:19.066Z,82.93
2023-03-10T19:25:41.119Z,83.32
2023-03-10T19:31:11.870Z,83.68
2023-03-10T19:36:33.722Z,84.10
2023-03-10T19:41:55.631Z,84.33
2023-03-10T19:47:17.466Z,84.59
2023-03-10T19:52:46.574Z,85.07
2023-03-10T19:58:08.484Z,85.26
2023-03-10T20:03:31.234Z,85.83
2023-03-10T20:08:53.726Z,86.62
2023-03-10T20:14:15.589Z,87.47
2023-03-10T20:19:37.482Z,87.62
2023-03-10T20:24:59.495Z,87.73
2023-03-10T20:30:25.124Z,87.53
2023-03-10T20:35:47.143Z,87.34
2023-03-10T20:41:08.993Z,87.07
2023-03-10T20:46:30.854Z,87.52
2023-03-10T20:51:52.831Z,87.51
2023-03-10T20:57:15.100Z,87.42
2023-03-10T21:02:36.923Z,87.40
2023-03-10T21:07:58.744Z,88.02
2023-03-10T21:13:20.677Z,87.99
2023-03-10T21:18:42.648Z,88.32
2023-03-10T21:24:05.146Z,88.97
2023-03-10T21:29:27.693Z,88.66
2023-03-10T21:34:49.572Z,89.78
2023-03-10T21:40:12.199Z,90.42
2023-03-10T21:45:34.189Z,90.61
2023-03-10T21:50:56.149Z,92.23
2023-03-10T21:56:18.037Z,93.68
2023-03-10T22:01:40.227Z,93.71
2023-03-10T22:07:02.150Z,94.98
2023-03-10T22:12:24.121Z,95.60
2023-03-10T22:17:46.637Z,95.97
2023-03-10T22:23:08.450Z,95.87
2023-03-10T22:28:30.321Z,97.18
2023-03-10T22:33:52.177Z,98.82
2023-03-10T22:39:14.034Z,99.06
2023-03-10T22:44:36.738Z,99.37
2023-03-10T22:49:58.632Z,100.00
2023-03-10T22:55:23.185Z,99.97
2023-03-10T23:00:45.262Z,100.00
2023-03-10T23:06:07.966Z,100.00
2023-03-10T23:11:29.882Z,100.00
2023-03-10T23:16:51.751Z,100.00
2023-03-10T23:22:13.630Z,100.00
2023-03-10T23:27:35.453Z,100.00
2023-03-10T23:32:57.772Z,100.00
2023-03-10T23:38:25.954Z,100.00
2023-03-10T23:43:47.930Z,100.00
2023-03-10T23:49:09.734Z,100.00
2023-03-10T23:54:31.582Z,100.00
2023-03-10T23:59:53.447Z,100.00
